Time;durP1;ratioP1;P1;durP2;ratioP2;P2;SDS_P1;SDS_P2;PMS_P1;PMS_P2;Temp;Humidity;BMP_temperature;BMP_pressure;BME280_temperature;BME280_humidity;BME280_pressure;Samples;Min_cycle;Max_cycle;Signal;HPM_P1;HPM_P2
2022/11/29 00:03:20;;;;;;;;;;;;;;;19.25;38.32;95359.09;10431701;28;1812;-53
2022/11/29 00:08:30;;;;;;;;;;;;;;;19.22;38.44;95355.22;10421922;28;2025;-54
2022/11/29 00:13:31;;;;;;;;;;;;;;;19.20;38.45;95357.31;10432159;28;2128;-51
2022/11/29 00:18:31;;;;;;;;;;;;;;;19.17;38.32;95365.75;10427909;28;2101;-52
2022/11/29 00:23:31;;;;;;;;;;;;;;;19.18;38.47;95364.69;10437399;28;1860;-52
2022/11/29 00:28:32;;;;;;;;;;;;;;;19.14;38.27;95363.66;10421117;28;1946;-53
2022/11/29 00:33:34;;;;;;;;;;;;;;;19.12;38.57;95350.03;10422482;28;2060;-50
2022/11/29 00:38:34;;;;;;;;;;;;;;;19.09;38.42;95353.19;10422255;28;2001;-51
2022/11/29 00:43:34;;;;;;;;;;;;;;;19.08;38.43;95353.47;10433044;28;1914;-53
2022/11/29 00:48:35;;;;;;;;;;;;;;;19.09;38.48;95350.56;10425234;28;2087;-51
2022/11/29 00:53:35;;;;;;;;;;;;;;;19.07;38.34;95350.06;10429180;28;1961;-55
2022/11/29 00:58:36;;;;;;;;;;;;;;;19.06;38.43;95350.31;10414367;28;1937;-53
2022/11/29 01:03:36;;;;;;;;;;;;;;;19.01;38.48;95348.50;10427707;28;1990;-53
2022/11/29 01:08:41;;;;;;;;;;;;;;;19.01;38.38;95353.75;10429351;28;2107;-54
2022/11/29 01:13:42;;;;;;;;;;;;;;;18.99;38.66;95345.38;10425798;28;2089;-52
2022/11/29 01:18:42;;;;;;;;;;;;;;;18.96;38.60;95355.66;10428018;28;1985;-54
2022/11/29 01:23:42;;;;;;;;;;;;;;;18.95;38.55;95352.22;10432262;28;2025;-52
2022/11/29 01:28:44;;;;;;;;;;;;;;;18.94;38.59;95361.16;10429028;28;2000;-54
2022/11/29 01:33:44;;;;;;;;;;;;;;;18.90;38.60;95356.75;10429979;28;1943;-54
2022/11/29 01:38:44;;;;;;;;;;;;;;;18.90;38.49;95352.25;10429934;28;1993;-52
2022/11/29 01:43:57;;;;;;;;;;;;;;;18.93;38.63;95345.69;10432476;28;1969;-54
2022/11/29 01:48:59;;;;;;;;;;;;;;;18.89;38.56;95350.69;10418335;28;1975;-52
2022/11/29 01:53:59;;;;;;;;;;;;;;;18.85;38.62;95349.66;10431348;28;2168;-53
2022/11/29 01:59:01;;;;;;;;;;;;;;;18.85;38.57;95341.78;10426851;28;1930;-53
2022/11/29 02:04:01;;;;;;;;;;;;;;;18.83;38.63;95343.91;10425431;28;2089;-52
2022/11/29 02:09:02;;;;;;;;;;;;;;;18.85;38.28;95346.25;10428492;28;1930;-52
2022/11/29 02:14:02;;;;;;;;;;;;;;;18.81;38.56;95339.97;10417399;28;1948;-54
2022/11/29 02:19:19;;;;;;;;;;;;;;;18.80;38.43;95341.03;10428104;28;2124;-53
2022/11/29 02:24:23;;;;;;;;;;;;;;;18.80;38.41;95348.91;10434063;28;1974;-51
2022/11/29 02:29:41;;;;;;;;;;;;;;;18.75;38.58;95341.84;10428554;28;2170;-53
2022/11/29 02:34:59;;;;;;;;;;;;;;;18.74;38.79;95337.66;10432113;28;2041;-54
2022/11/29 02:40:03;;;;;;;;;;;;;;;18.71;38.77;95343.44;10429847;28;1927;-53
2022/11/29 02:45:06;;;;;;;;;;;;;;;18.73;38.75;95346.59;10427817;28;1998;-54
2022/11/29 02:50:15;;;;;;;;;;;;;;;18.72;38.73;95345.00;10430737;28;1919;-51
2022/11/29 02:55:29;;;;;;;;;;;;;;;18.69;38.67;95348.94;10436016;28;1986;-53
2022/11/29 03:00:30;;;;;;;;;;;;;;;18.67;38.56;95343.19;10440037;28;2132;-54
2022/11/29 03:05:33;;;;;;;;;;;;;;;18.65;38.65;95352.38;10429315;28;1996;-54
2022/11/29 03:10:48;;;;;;;;;;;;;;;18.63;38.67;95352.66;10440535;28;2043;-53
2022/11/29 03:15:51;;;;;;;;;;;;;;;18.64;38.58;95356.88;10438176;28;1898;-50
2022/11/29 03:21:07;;;;;;;;;;;;;;;18.60;38.71;95363.72;10439875;28;2124;-50
2022/11/29 03:26:09;;;;;;;;;;;;;;;18.61;38.63;95375.78;10438882;28;1983;-56
2022/11/29 03:31:30;;;;;;;;;;;;;;;18.60;38.60;95374.22;10434740;28;2085;-55
2022/11/29 03:36:50;;;;;;;;;;;;;;;18.58;38.73;95378.16;10435278;28;1963;-53
2022/11/29 03:42:01;;;;;;;;;;;;;;;18.58;38.75;95367.66;10435741;28;1966;-51
2022/11/29 03:47:14;;;;;;;;;;;;;;;18.57;38.53;95366.06;10438326;28;2016;-55
2022/11/29 03:52:14;;;;;;;;;;;;;;;18.55;38.73;95361.09;10428067;28;2060;-55
2022/11/29 03:57:16;;;;;;;;;;;;;;;18.56;38.76;95373.19;10434404;28;1994;-53
2022/11/29 04:02:17;;;;;;;;;;;;;;;18.49;38.96;95366.63;10430452;28;1926;-53
2022/11/29 04:07:37;;;;;;;;;;;;;;;18.52;39.21;95368.75;10432145;28;1973;-52
2022/11/29 04:12:50;;;;;;;;;;;;;;;18.51;39.22;95372.41;10430494;28;2160;-52
2022/11/29 04:18:00;;;;;;;;;;;;;;;18.54;38.92;95364.00;10436685;28;1906;-53
2022/11/29 04:23:39;;;;;;;;;;;;;;;18.53;39.00;95362.41;10435116;28;1954;-55
2022/11/29 04:28:54;;;;;;;;;;;;;;;18.48;39.12;95359.84;10347956;28;2300;-57
2022/11/29 04:33:57;;;;;;;;;;;;;;;18.46;38.91;95364.56;10407277;28;1996;-54
2022/11/29 04:39:12;;;;;;;;;;;;;;;18.43;39.07;95367.69;10425545;28;1974;-50
2022/11/29 04:44:20;;;;;;;;;;;;;;;18.42;39.08;95366.91;10430757;28;1989;-52
2022/11/29 04:49:35;;;;;;;;;;;;;;;18.43;39.28;95375.56;10425936;28;2042;-55
2022/11/29 04:54:45;;;;;;;;;;;;;;;18.43;38.90;95370.31;10432718;28;1977;-54
2022/11/29 04:59:46;;;;;;;;;;;;;;;18.40;39.01;95374.25;10433711;28;2027;-53
2022/11/29 05:04:51;;;;;;;;;;;;;;;18.49;38.74;95377.94;10433760;28;1953;-53
2022/11/29 05:09:58;;;;;;;;;;;;;;;18.60;38.61;95378.69;10427165;28;2007;-54
2022/11/29 05:15:17;;;;;;;;;;;;;;;18.71;38.45;95380.22;10431952;28;1974;-50
2022/11/29 05:20:26;;;;;;;;;;;;;;;18.84;38.15;95378.81;10430977;28;1907;-56
2022/11/29 05:25:29;;;;;;;;;;;;;;;18.89;38.21;95376.16;10422548;28;2133;-54
2022/11/29 05:30:59;;;;;;;;;;;;;;;18.94;37.82;95384.78;10429399;28;1950;-51
2022/11/29 05:35:59;;;;;;;;;;;;;;;18.98;37.86;95385.81;10422666;28;2014;-54
2022/11/29 05:41:23;;;;;;;;;;;;;;;18.98;37.26;95385.81;10426993;28;2059;-54
2022/11/29 05:46:26;;;;;;;;;;;;;;;19.02;36.84;95397.34;10430771;28;1981;-55
2022/11/29 05:51:32;;;;;;;;;;;;;;;19.03;36.76;95396.31;10427803;28;2056;-54
2022/11/29 05:56:42;;;;;;;;;;;;;;;19.07;36.65;95397.34;10430353;28;1961;-52
2022/11/29 06:01:42;;;;;;;;;;;;;;;19.11;36.45;95405.44;10440882;28;1939;-52
2022/11/29 06:06:51;;;;;;;;;;;;;;;19.14;36.61;95403.09;10443751;28;2026;-53
2022/11/29 06:11:53;;;;;;;;;;;;;;;19.18;36.29;95405.94;10439401;28;1914;-53
2022/11/29 06:16:55;;;;;;;;;;;;;;;19.21;36.88;95406.19;10441878;28;1974;-50
2022/11/29 06:22:09;;;;;;;;;;;;;;;19.23;36.18;95409.31;10439054;28;2150;-52
2022/11/29 06:27:12;;;;;;;;;;;;;;;19.26;36.35;95411.41;10434269;28;2078;-52
2022/11/29 06:32:28;;;;;;;;;;;;;;;19.28;36.74;95413.75;10438194;28;2053;-55
2022/11/29 06:37:28;;;;;;;;;;;;;;;19.34;36.40;95418.75;10436632;28;2065;-53
2022/11/29 06:42:28;;;;;;;;;;;;;;;19.35;36.41;95422.94;10432789;28;1937;-55
2022/11/29 06:47:29;;;;;;;;;;;;;;;19.39;36.82;95423.19;10429255;28;2026;-53
2022/11/29 06:52:36;;;;;;;;;;;;;;;19.40;36.22;95428.16;10455647;28;2018;-55
2022/11/29 06:57:46;;;;;;;;;;;;;;;19.40;36.63;95424.75;10436488;28;1914;-52
2022/11/29 07:02:50;;;;;;;;;;;;;;;19.42;36.07;95428.66;10436465;28;1951;-52
2022/11/29 07:08:01;;;;;;;;;;;;;;;19.44;36.79;95433.66;10420405;28;1944;-52
2022/11/29 07:13:01;;;;;;;;;;;;;;;19.42;36.02;95439.19;10432464;28;1922;-53
2022/11/29 07:18:05;;;;;;;;;;;;;;;19.45;36.19;95436.00;10449461;28;1811;-53
2022/11/29 07:23:23;;;;;;;;;;;;;;;19.46;35.90;95436.78;10433514;28;1645;-54
2022/11/29 07:28:28;;;;;;;;;;;;;;;19.47;36.00;95452.28;10430177;28;1914;-51
2022/11/29 07:33:40;;;;;;;;;;;;;;;19.49;35.88;95444.91;10430992;28;2030;-53
2022/11/29 07:38:47;;;;;;;;;;;;;;;19.48;35.72;95448.59;10427139;28;2229;-52
2022/11/29 07:44:02;;;;;;;;;;;;;;;19.51;37.19;95457.00;10426658;28;1969;-54
2022/11/29 07:49:03;;;;;;;;;;;;;;;19.58;37.28;95449.59;10401487;28;2034;-53
2022/11/29 07:54:03;;;;;;;;;;;;;;;19.59;37.51;95451.16;10435058;28;2042;-53
2022/11/29 07:59:03;;;;;;;;;;;;;;;19.62;37.37;95453.25;10423610;28;1932;-51
2022/11/29 08:04:04;;;;;;;;;;;;;;;19.61;36.85;95457.72;10415843;28;1982;-52
2022/11/29 08:09:06;;;;;;;;;;;;;;;19.64;37.29;95451.13;10423956;28;1969;-51
2022/11/29 08:14:06;;;;;;;;;;;;;;;19.73;38.02;95457.38;10414149;28;2075;-51
2022/11/29 08:19:07;;;;;;;;;;;;;;;19.80;38.39;95463.09;10432584;28;2043;-51
2022/11/29 08:24:07;;;;;;;;;;;;;;;19.83;38.57;95470.44;10428202;28;2068;-49
2022/11/29 08:29:08;;;;;;;;;;;;;;;19.84;38.59;95474.66;10419035;28;2125;-53
2022/11/29 08:34:09;;;;;;;;;;;;;;;19.83;38.83;95467.81;10426435;28;2026;-54
2022/11/29 08:39:09;;;;;;;;;;;;;;;19.80;38.54;95463.09;10427010;28;1887;-52
2022/11/29 08:44:10;;;;;;;;;;;;;;;19.79;38.57;95472.03;10419358;28;2007;-51
2022/11/29 08:49:10;;;;;;;;;;;;;;;19.82;38.13;95476.75;10425102;28;2132;-50
2022/11/29 08:54:10;;;;;;;;;;;;;;;19.75;38.66;95476.28;10422829;28;2044;-49
2022/11/29 08:59:11;;;;;;;;;;;;;;;19.74;38.60;95477.34;10424529;28;1974;-52
2022/11/29 09:04:12;;;;;;;;;;;;;;;19.70;38.83;95484.22;10421556;28;2034;-51
2022/11/29 09:09:12;;;;;;;;;;;;;;;19.63;38.77;95487.16;10426810;28;2063;-50
2022/11/29 09:14:13;;;;;;;;;;;;;;;19.60;38.63;95486.94;10424773;28;2109;-52
2022/11/29 09:19:16;;;;;;;;;;;;;;;19.56;38.58;95489.28;10424552;28;1970;-49
2022/11/29 09:24:17;;;;;;;;;;;;;;;19.53;38.86;95497.75;10427480;28;1915;-55
2022/11/29 09:29:17;;;;;;;;;;;;;;;19.51;38.66;95494.59;10413940;28;2022;-51
2022/11/29 09:34:18;;;;;;;;;;;;;;;19.49;38.90;95497.47;10413023;28;2180;-55
2022/11/29 09:39:18;;;;;;;;;;;;;;;19.47;38.77;95504.09;10417811;28;2206;-55
2022/11/29 09:44:24;;;;;;;;;;;;;;;19.44;38.84;95505.41;10420914;28;1981;-53
2022/11/29 09:49:33;;;;;;;;;;;;;;;19.42;38.72;95501.47;10420902;28;2472;-54
2022/11/29 09:54:48;;;;;;;;;;;;;;;19.41;38.65;95500.69;10422042;28;2036;-51
2022/11/29 09:59:49;;;;;;;;;;;;;;;19.38;38.71;95501.25;10419905;28;1942;-52
2022/11/29 10:04:50;;;;;;;;;;;;;;;19.34;38.66;95505.47;10419606;28;2057;-52
2022/11/29 10:10:03;;;;;;;;;;;;;;;19.33;38.75;95509.13;10427159;28;2054;-52
2022/11/29 10:15:08;;;;;;;;;;;;;;;19.30;38.74;95504.41;10419776;28;2026;-54
2022/11/29 10:20:12;;;;;;;;;;;;;;;19.27;38.79;95502.31;10421984;28;2040;-54
2022/11/29 10:25:17;;;;;;;;;;;;;;;19.27;38.88;95510.19;10419473;28;2022;-51
2022/11/29 10:30:18;;;;;;;;;;;;;;;19.25;38.68;95495.75;10420155;28;2097;-54
2022/11/29 10:35:18;;;;;;;;;;;;;;;19.22;38.86;95493.69;10423905;28;2042;-55
2022/11/29 10:40:28;;;;;;;;;;;;;;;19.21;38.84;95490.25;10424713;28;2050;-52
2022/11/29 10:45:28;;;;;;;;;;;;;;;19.18;38.83;95495.28;10428136;28;2258;-53
2022/11/29 10:50:29;;;;;;;;;;;;;;;19.17;38.63;95494.47;10431866;28;2070;-54
2022/11/29 10:55:30;;;;;;;;;;;;;;;19.09;39.12;95492.41;10429601;28;1961;-51
2022/11/29 11:00:31;;;;;;;;;;;;;;;19.08;38.89;95485.59;10431440;28;2055;-53
2022/11/29 11:05:31;;;;;;;;;;;;;;;19.08;38.90;95497.97;10426038;28;2015;-50
2022/11/29 11:10:34;;;;;;;;;;;;;;;19.09;38.88;95495.06;10430178;28;1995;-51
2022/11/29 11:15:34;;;;;;;;;;;;;;;19.07;39.05;95494.53;10429113;28;1980;-54
2022/11/29 11:20:35;;;;;;;;;;;;;;;19.01;39.33;95498.25;10427049;28;2061;-56
2022/11/29 11:25:39;;;;;;;;;;;;;;;19.00;39.18;95494.03;10430963;28;1962;-54
2022/11/29 11:30:39;;;;;;;;;;;;;;;19.01;38.83;95490.34;10422696;28;2051;-54
2022/11/29 11:35:39;;;;;;;;;;;;;;;19.07;39.23;95499.78;10434027;28;2025;-55
2022/11/29 11:40:39;;;;;;;;;;;;;;;19.18;40.09;95503.16;10431129;28;2032;-52
2022/11/29 11:45:40;;;;;;;;;;;;;;;19.34;41.95;95505.47;10422745;28;2013;-50
2022/11/29 11:50:58;;;;;;;;;;;;;;;19.46;42.16;95503.28;10424075;28;2038;-54
2022/11/29 11:56:01;;;;;;;;;;;;;;;19.54;42.25;95509.81;10415400;28;1902;-54
2022/11/29 12:01:11;;;;;;;;;;;;;;;19.66;41.83;95504.25;10426806;28;2106;-55
2022/11/29 12:06:34;;;;;;;;;;;;;;;19.74;41.37;95514.16;10424046;28;1922;-54
2022/11/29 12:11:37;;;;;;;;;;;;;;;19.71;40.49;95506.81;10407371;28;2051;-54
2022/11/29 12:16:38;;;;;;;;;;;;;;;19.68;40.50;95510.78;10422087;28;2099;-55
2022/11/29 12:21:40;;;;;;;;;;;;;;;19.66;39.40;95512.88;10446631;28;2048;-54
2022/11/29 12:26:40;;;;;;;;;;;;;;;19.70;39.42;95518.41;10432382;28;2059;-54
2022/11/29 12:31:54;;;;;;;;;;;;;;;19.93;40.55;95512.44;10418830;28;2182;-61
2022/11/29 12:37:03;;;;;;;;;;;;;;;19.89;39.97;95519.31;10415610;28;2067;-60
2022/11/29 12:42:22;;;;;;;;;;;;;;;19.94;39.05;95511.38;10428901;28;2095;-62
2022/11/29 12:47:41;;;;;;;;;;;;;;;19.84;37.57;95516.72;10424592;28;2060;-56
2022/11/29 12:53:00;;;;;;;;;;;;;;;19.86;37.47;95517.25;10437125;28;2081;-52
2022/11/29 12:58:09;;;;;;;;;;;;;;;20.17;39.73;95524.59;10422026;28;2188;-56
2022/11/29 13:03:20;;;;;;;;;;;;;;;20.17;38.25;95518.56;10426145;28;2106;-54
2022/11/29 13:08:35;;;;;;;;;;;;;;;20.07;37.00;95521.28;10417101;28;2055;-57
2022/11/29 13:13:39;;;;;;;;;;;;;;;20.09;36.96;95527.06;10418120;28;2375;-56
2022/11/29 13:18:45;;;;;;;;;;;;;;;20.12;36.89;95531.75;10422230;28;1988;-53
2022/11/29 13:23:46;;;;;;;;;;;;;;;20.16;37.09;95524.88;10418459;28;1982;-57
2022/11/29 13:28:46;;;;;;;;;;;;;;;20.27;37.76;95532.47;10416048;28;2070;-62
2022/11/29 13:33:46;;;;;;;;;;;;;;;20.37;37.57;95533.44;10418754;28;1997;-55
2022/11/29 13:39:22;;;;;;;;;;;;;;;20.43;37.65;95527.84;10418582;28;2239;-56
2022/11/29 13:44:41;;;;;;;;;;;;;;;20.53;38.17;95542.75;10379855;28;2038;-53
2022/11/29 13:49:48;;;;;;;;;;;;;;;20.57;38.34;95543.78;10415514;28;1962;-60
2022/11/29 13:54:51;;;;;;;;;;;;;;;20.61;38.92;95544.81;10430487;28;2014;-51
2022/11/29 13:59:51;;;;;;;;;;;;;;;20.58;38.86;95538.25;10421565;28;2111;-51
2022/11/29 14:04:52;;;;;;;;;;;;;;;20.57;38.95;95549.81;10437197;28;2070;-52
2022/11/29 14:10:18;;;;;;;;;;;;;;;20.56;39.17;95543.00;10449435;28;2055;-52
2022/11/29 14:15:23;;;;;;;;;;;;;;;20.57;38.95;95541.13;10421019;28;2044;-55
2022/11/29 14:20:27;;;;;;;;;;;;;;;20.57;39.16;95549.81;10426181;28;2044;-51
2022/11/29 14:25:27;;;;;;;;;;;;;;;20.56;38.95;95556.16;10431897;28;2376;-53
2022/11/29 14:30:28;;;;;;;;;;;;;;;20.56;38.70;95563.28;10428246;28;2038;-53
2022/11/29 14:35:30;;;;;;;;;;;;;;;20.56;38.84;95574.59;10429231;28;1914;-50
2022/11/29 14:40:40;;;;;;;;;;;;;;;20.56;38.90;95571.97;10424617;28;2032;-49
2022/11/29 14:45:41;;;;;;;;;;;;;;;20.53;38.86;95575.16;10425250;28;2023;-52
2022/11/29 14:50:41;;;;;;;;;;;;;;;20.54;38.97;95575.94;10430046;28;2082;-52
2022/11/29 14:55:42;;;;;;;;;;;;;;;20.54;39.07;95575.94;10432200;28;2083;-54
2022/11/29 15:00:50;;;;;;;;;;;;;;;20.55;38.93;95580.13;10431779;28;2132;-52
2022/11/29 15:05:54;;;;;;;;;;;;;;;20.55;39.18;95585.38;10438289;28;2079;-52
2022/11/29 15:11:04;;;;;;;;;;;;;;;20.55;38.90;95588.81;10426042;28;2015;-52
2022/11/29 15:16:23;;;;;;;;;;;;;;;20.59;38.92;95584.56;10446948;28;2035;-63
2022/11/29 15:21:43;;;;;;;;;;;;;;;20.58;39.04;95601.44;10424744;28;2090;-62
2022/11/29 15:26:58;;;;;;;;;;;;;;;20.59;39.17;95592.47;10429629;28;2153;-62
2022/11/29 15:32:04;;;;;;;;;;;;;;;20.61;39.02;95592.22;10423591;28;1946;-61
2022/11/29 15:37:04;;;;;;;;;;;;;;;20.61;39.07;95595.59;10433076;28;2029;-61
2022/11/29 15:42:07;;;;;;;;;;;;;;;20.66;39.19;95613.22;10422484;28;1895;-53
2022/11/29 15:47:23;;;;;;;;;;;;;;;20.64;39.25;95618.78;10428603;28;2015;-50
2022/11/29 15:52:26;;;;;;;;;;;;;;;20.77;38.49;95622.63;10428583;28;2083;-50
2022/11/29 15:57:28;;;;;;;;;;;;;;;20.72;39.29;95626.06;10426230;28;1986;-53
2022/11/29 16:02:29;;;;;;;;;;;;;;;20.72;39.05;95628.72;10438454;28;2078;-66
2022/11/29 16:07:31;;;;;;;;;;;;;;;20.80;38.98;95630.75;10448985;28;2052;-64
2022/11/29 16:12:31;;;;;;;;;;;;;;;20.72;39.00;95620.00;10428816;28;2078;-52
2022/11/29 16:17:32;;;;;;;;;;;;;;;20.73;39.47;95622.38;10421930;28;2137;-53
2022/11/29 16:22:32;;;;;;;;;;;;;;;20.83;38.38;95634.69;10426679;28;2055;-53
2022/11/29 16:27:33;;;;;;;;;;;;;;;20.85;38.42;95640.44;10427012;28;2021;-51
2022/11/29 16:32:34;;;;;;;;;;;;;;;20.84;37.55;95636.22;10425360;28;1977;-51
2022/11/29 16:37:38;;;;;;;;;;;;;;;20.78;38.99;95634.72;10429756;28;2370;-54
2022/11/29 16:43:02;;;;;;;;;;;;;;;20.83;38.12;95632.03;10436626;28;1922;-53
2022/11/29 16:48:21;;;;;;;;;;;;;;;20.83;37.65;95637.31;10430293;28;2050;-51
2022/11/29 16:53:37;;;;;;;;;;;;;;;20.83;37.70;95634.69;10432090;28;2055;-54
2022/11/29 16:58:38;;;;;;;;;;;;;;;20.84;37.36;95638.88;10416720;28;2071;-54
2022/11/29 17:03:38;;;;;;;;;;;;;;;20.85;37.57;95648.34;10424702;28;2037;-52
2022/11/29 17:08:39;;;;;;;;;;;;;;;20.85;37.58;95646.50;10414684;28;2050;-54
2022/11/29 17:13:39;;;;;;;;;;;;;;;20.85;37.42;95643.88;10421973;28;2117;-54
2022/11/29 17:18:40;;;;;;;;;;;;;;;20.83;37.96;95648.63;10424938;28;2052;-52
2022/11/29 17:23:40;;;;;;;;;;;;;;;20.84;38.39;95650.19;10424819;28;2063;-57
2022/11/29 17:28:44;;;;;;;;;;;;;;;20.86;37.58;95653.34;10418026;28;2104;-54
2022/11/29 17:33:44;;;;;;;;;;;;;;;20.87;37.28;95662.03;10426521;28;2059;-53
2022/11/29 17:38:45;;;;;;;;;;;;;;;20.85;37.19;95670.22;10430203;28;2000;-53
2022/11/29 17:43:45;;;;;;;;;;;;;;;20.86;36.99;95663.88;10423492;28;2000;-53
2022/11/29 17:48:45;;;;;;;;;;;;;;;20.88;37.10;95671.50;10417645;28;2044;-54
2022/11/29 17:53:46;;;;;;;;;;;;;;;20.87;37.09;95680.47;10430985;28;2078;-55
2022/11/29 17:58:49;;;;;;;;;;;;;;;20.81;37.74;95671.81;10436834;28;2084;-58
2022/11/29 18:03:56;;;;;;;;;;;;;;;20.85;37.60;95685.25;10436117;28;2011;-59
2022/11/29 18:08:57;;;;;;;;;;;;;;;20.85;37.93;95686.03;10436793;28;2035;-71
2022/11/29 18:13:57;;;;;;;;;;;;;;;20.75;38.20;95682.69;10431835;28;2129;-66
2022/11/29 18:18:59;;;;;;;;;;;;;;;20.74;38.56;95686.38;10437443;28;2131;-65
2022/11/29 18:23:59;;;;;;;;;;;;;;;20.70;38.16;95696.69;10448018;28;2061;-68
2022/11/29 18:29:00;;;;;;;;;;;;;;;20.71;38.56;95702.75;10452976;28;2084;-58
2022/11/29 18:34:00;;;;;;;;;;;;;;;20.80;38.07;95709.78;10440328;28;2011;-57
2022/11/29 18:39:02;;;;;;;;;;;;;;;20.69;38.48;95710.13;10436003;28;2157;-55
2022/11/29 18:44:06;;;;;;;;;;;;;;;20.65;38.42;95709.88;10439419;28;2078;-56
2022/11/29 18:49:06;;;;;;;;;;;;;;;20.74;38.01;95702.97;10427908;28;2005;-56
2022/11/29 18:54:07;;;;;;;;;;;;;;;20.63;38.70;95714.63;10427139;28;2075;-54
2022/11/29 18:59:09;;;;;;;;;;;;;;;20.61;38.88;95713.34;10434024;28;2019;-55
2022/11/29 19:04:12;;;;;;;;;;;;;;;20.62;39.17;95707.00;10427290;28;2028;-55
2022/11/29 19:09:13;;;;;;;;;;;;;;;20.67;38.85;95712.25;10429812;28;2147;-53
2022/11/29 19:14:14;;;;;;;;;;;;;;;20.68;38.96;95709.34;10430225;28;2018;-55
2022/11/29 19:19:14;;;;;;;;;;;;;;;20.71;38.89;95719.31;10430972;28;2051;-54
2022/11/29 19:24:16;;;;;;;;;;;;;;;20.73;37.67;95714.56;10431244;28;2042;-55
2022/11/29 19:29:16;;;;;;;;;;;;;;;20.73;37.87;95727.72;10425338;28;2050;-51
2022/11/29 19:34:17;;;;;;;;;;;;;;;20.72;37.81;95730.66;10443337;28;2017;-54
2022/11/29 19:39:17;;;;;;;;;;;;;;;20.70;37.70;95722.22;10433829;28;2028;-52
2022/11/29 19:44:17;;;;;;;;;;;;;;;20.69;38.04;95725.94;10424307;28;2022;-54
2022/11/29 19:49:17;;;;;;;;;;;;;;;20.68;37.92;95727.78;10425878;28;1988;-52
2022/11/29 19:54:18;;;;;;;;;;;;;;;20.69;37.85;95729.34;10433236;28;2063;-54
2022/11/29 19:59:18;;;;;;;;;;;;;;;20.71;37.94;95734.34;10439776;28;2015;-55
2022/11/29 20:04:18;;;;;;;;;;;;;;;20.68;37.75;95730.41;10438545;28;2096;-55
2022/11/29 20:09:18;;;;;;;;;;;;;;;20.69;37.87;95731.22;10422855;28;2065;-52
2022/11/29 20:14:19;;;;;;;;;;;;;;;20.68;37.62;95740.94;10434258;28;2119;-55
2022/11/29 20:19:19;;;;;;;;;;;;;;;20.69;37.98;95737.25;10431003;28;2117;-56
2022/11/29 20:24:20;;;;;;;;;;;;;;;20.70;37.63;95743.31;10434975;28;2000;-54
2022/11/29 20:29:23;;;;;;;;;;;;;;;20.67;37.67;95744.63;10431370;28;2072;-53
2022/11/29 20:34:24;;;;;;;;;;;;;;;20.67;37.83;95749.91;10435531;28;1992;-56
2022/11/29 20:39:24;;;;;;;;;;;;;;;20.70;37.96;95756.47;10438254;28;2054;-57
2022/11/29 20:44:33;;;;;;;;;;;;;;;20.66;37.57;95761.50;10431752;28;2054;-56
2022/11/29 20:49:34;;;;;;;;;;;;;;;20.67;37.64;95765.69;10430216;28;2000;-54
2022/11/29 20:54:34;;;;;;;;;;;;;;;20.65;38.11;95772.31;10436057;28;2051;-55
2022/11/29 20:59:35;;;;;;;;;;;;;;;20.66;38.61;95768.63;10435450;28;2085;-55
2022/11/29 21:04:35;;;;;;;;;;;;;;;20.66;38.88;95769.41;10433741;28;2127;-54
2022/11/29 21:09:36;;;;;;;;;;;;;;;20.64;39.41;95771.53;10424580;28;1983;-54
2022/11/29 21:14:36;;;;;;;;;;;;;;;20.64;39.64;95770.75;10429564;28;2166;-54
2022/11/29 21:19:36;;;;;;;;;;;;;;;20.61;39.61;95772.06;10437932;28;2046;-54
2022/11/29 21:24:55;;;;;;;;;;;;;;;20.60;40.05;95775.78;10440410;28;2177;-55
2022/11/29 21:29:56;;;;;;;;;;;;;;;20.58;40.31;95772.63;10433266;28;1907;-54
2022/11/29 21:34:56;;;;;;;;;;;;;;;20.56;40.11;95764.22;10432308;28;2031;-55
2022/11/29 21:39:59;;;;;;;;;;;;;;;20.57;40.19;95776.31;10426992;28;2154;-55
2022/11/29 21:44:59;;;;;;;;;;;;;;;20.54;40.23;95776.88;10431893;28;2006;-54
2022/11/29 21:49:59;;;;;;;;;;;;;;;20.52;40.43;95781.63;10439787;28;1989;-54
2022/11/29 21:55:00;;;;;;;;;;;;;;;20.53;40.27;95774.47;10416496;28;2077;-55
2022/11/29 22:00:00;;;;;;;;;;;;;;;20.47;40.55;95780.84;10416851;28;1969;-54
2022/11/29 22:05:00;;;;;;;;;;;;;;;20.48;40.33;95785.84;10430427;28;2243;-54
2022/11/29 22:10:03;;;;;;;;;;;;;;;20.46;40.32;95785.34;10430495;28;2067;-52
2022/11/29 22:15:04;;;;;;;;;;;;;;;20.48;39.93;95785.84;10434240;28;2064;-53
2022/11/29 22:20:05;;;;;;;;;;;;;;;20.43;40.51;95775.34;10435810;28;1915;-54
2022/11/29 22:25:05;;;;;;;;;;;;;;;20.41;40.64;95780.09;10435333;28;2192;-53
2022/11/29 22:30:06;;;;;;;;;;;;;;;20.40;40.80;95775.09;10434601;28;2043;-53
2022/11/29 22:35:06;;;;;;;;;;;;;;;20.39;40.53;95787.47;10433211;28;2075;-54
2022/11/29 22:40:07;;;;;;;;;;;;;;;20.37;40.43;95784.31;10434877;28;1970;-53
2022/11/29 22:45:07;;;;;;;;;;;;;;;20.36;40.80;95785.38;10437722;28;2063;-53
2022/11/29 22:50:08;;;;;;;;;;;;;;;20.33;40.37;95785.91;10438381;28;2132;-54
2022/11/29 22:55:08;;;;;;;;;;;;;;;20.35;40.50;95781.16;10440306;28;2056;-53
2022/11/29 23:00:09;;;;;;;;;;;;;;;20.32;40.68;95779.06;10425453;28;2025;-54
2022/11/29 23:05:09;;;;;;;;;;;;;;;20.33;40.31;95769.31;10430546;28;2060;-53
2022/11/29 23:10:09;;;;;;;;;;;;;;;20.31;40.28;95776.72;10430009;28;2349;-52
2022/11/29 23:15:09;;;;;;;;;;;;;;;20.31;40.45;95780.13;10436405;28;1997;-53
2022/11/29 23:20:10;;;;;;;;;;;;;;;20.30;40.24;95775.91;10438362;28;2038;-55
2022/11/29 23:25:10;;;;;;;;;;;;;;;20.25;40.27;95779.38;10440412;28;1974;-54
2022/11/29 23:30:13;;;;;;;;;;;;;;;20.28;40.19;95783.28;10434812;28;2057;-55
2022/11/29 23:35:13;;;;;;;;;;;;;;;20.25;40.28;95784.66;10431196;28;2142;-51
2022/11/29 23:40:24;;;;;;;;;;;;;;;20.25;40.16;95786.47;10424348;28;1978;-54
2022/11/29 23:45:24;;;;;;;;;;;;;;;20.23;39.95;95783.34;10432832;28;2087;-55
2022/11/29 23:50:24;;;;;;;;;;;;;;;20.22;39.92;95785.19;10428605;28;2004;-55
2022/11/29 23:55:24;;;;;;;;;;;;;;;20.20;39.99;95781.22;10428939;28;2045;-54
